createdAt,value
2023-03-15T00:01:34.270Z,88.37
2023-03-15T00:04:05.946Z,88.43
2023-03-15T00:06:36.007Z,87.51
2023-03-15T00:09:04.756Z,88.01
2023-03-15T00:11:33.338Z,86.24
2023-03-15T00:14:02.605Z,86.93
2023-03-15T00:16:32.805Z,87.33
2023-03-15T00:19:01.887Z,86.73
2023-03-15T00:21:30.424Z,86.24
2023-03-15T00:24:00.080Z,86.80
2023-03-15T00:26:28.418Z,85.84
2023-03-15T00:28:56.761Z,85.33
2023-03-15T00:31:26.722Z,85.05
2023-03-15T00:33:55.195Z,85.98
2023-03-15T00:36:26.897Z,87.05
2023-03-15T00:38:57.127Z,86.40
2023-03-15T00:41:26.983Z,86.40
2023-03-15T00:43:55.899Z,85.67
2023-03-15T00:46:24.281Z,85.33
2023-03-15T00:48:53.232Z,85.41
2023-03-15T00:51:23.859Z,84.97
2023-03-15T00:53:53.977Z,85.68
2023-03-15T00:56:24.186Z,85.71
2023-03-15T00:58:54.220Z,84.54
2023-03-15T01:01:24.477Z,84.71
2023-03-15T01:03:52.944Z,85.21
2023-03-15T01:06:23.959Z,84.64
2023-03-15T01:08:54.546Z,83.87
2023-03-15T01:11:26.145Z,83.65
2023-03-15T01:13:58.501Z,84.13
2023-03-15T01:16:28.529Z,83.82
2023-03-15T01:18:57.131Z,82.76
2023-03-15T01:21:27.182Z,83.35
2023-03-15T01:23:55.789Z,83.70
2023-03-15T01:26:24.635Z,83.25
2023-03-15T01:28:53.111Z,82.64
2023-03-15T01:31:25.332Z,82.17
2023-03-15T01:33:53.872Z,82.49
2023-03-15T01:36:23.076Z,81.91
2023-03-15T01:38:52.400Z,82.20
2023-03-15T01:41:27.360Z,81.23
2023-03-15T01:43:55.741Z,81.16
2023-03-15T01:46:34.886Z,81.59
2023-03-15T01:49:17.378Z,82.23
2023-03-15T01:51:50.178Z,82.36
2023-03-15T01:54:22.651Z,83.32
2023-03-15T01:56:56.260Z,83.39
2023-03-15T01:59:28.891Z,82.89
2023-03-15T02:02:01.122Z,83.95
2023-03-15T02:04:34.783Z,83.46
2023-03-15T02:07:05.095Z,83.95
2023-03-15T02:09:43.086Z,82.83
2023-03-15T02:12:12.576Z,83.19
2023-03-15T02:14:42.562Z,83.58
2023-03-15T02:17:16.195Z,84.62
2023-03-15T02:19:54.209Z,85.22
2023-03-15T02:22:34.547Z,84.90
2023-03-15T02:25:11.214Z,85.41
2023-03-15T02:27:41.337Z,85.52
2023-03-15T02:30:11.686Z,85.11
2023-03-15T02:32:40.445Z,84.65
2023-03-15T02:35:09.313Z,84.75
2023-03-15T02:37:37.442Z,85.03
2023-03-15T02:40:17.905Z,85.48
2023-03-15T02:42:49.264Z,84.73
2023-03-15T02:45:18.766Z,84.57
2023-03-15T02:47:48.211Z,85.22
2023-03-15T02:50:16.510Z,84.82
2023-03-15T02:52:44.928Z,85.43
2023-03-15T02:55:13.607Z,85.90
2023-03-15T02:57:41.688Z,84.97
2023-03-15T03:00:14.790Z,85.23
2023-03-15T03:02:46.860Z,85.28
2023-03-15T03:05:17.315Z,85.57
2023-03-15T03:07:45.793Z,85.82
2023-03-15T03:10:17.516Z,85.39
2023-03-15T03:12:58.681Z,85.34
2023-03-15T03:15:34.269Z,85.20
2023-03-15T03:18:02.382Z,85.26
2023-03-15T03:20:30.436Z,85.54
2023-03-15T03:22:58.791Z,86.55
2023-03-15T03:25:27.388Z,85.83
2023-03-15T03:27:57.510Z,85.52
2023-03-15T03:30:27.964Z,85.74
2023-03-15T03:32:57.576Z,85.56
2023-03-15T03:35:25.838Z,86.18
2023-03-15T03:37:54.737Z,85.59
2023-03-15T03:40:29.203Z,85.40
2023-03-15T03:42:57.324Z,85.55
2023-03-15T03:45:25.670Z,84.75
2023-03-15T03:47:58.423Z,84.08
2023-03-15T03:50:27.002Z,84.38
2023-03-15T03:52:55.335Z,84.77
2023-03-15T03:55:27.942Z,84.04
2023-03-15T03:57:56.170Z,83.00
2023-03-15T04:00:37.698Z,83.35
2023-03-15T04:03:10.647Z,83.67
2023-03-15T04:05:42.060Z,84.42
2023-03-15T04:08:10.633Z,85.58
2023-03-15T04:10:40.824Z,84.71
2023-03-15T04:13:09.650Z,84.70
2023-03-15T04:15:38.202Z,84.03
2023-03-15T04:18:07.377Z,84.44
2023-03-15T04:20:46.759Z,84.46
2023-03-15T04:23:16.808Z,85.24
2023-03-15T04:26:06.671Z,86.16
2023-03-15T04:29:00.405Z,86.69
2023-03-15T04:32:01.907Z,86.03
2023-03-15T04:34:51.361Z,85.68
2023-03-15T04:37:33.829Z,85.44
2023-03-15T04:40:20.608Z,85.94
2023-03-15T04:43:17.103Z,86.41
2023-03-15T04:45:59.764Z,86.66
2023-03-15T04:48:45.776Z,86.93
2023-03-15T04:51:44.331Z,87.18
2023-03-15T04:54:40.615Z,87.07
2023-03-15T04:57:35.252Z,86.07
2023-03-15T05:00:24.670Z,87.38
2023-03-15T05:03:25.685Z,86.51
2023-03-15T05:06:08.369Z,86.96
2023-03-15T05:09:05.690Z,86.84
2023-03-15T05:12:02.349Z,86.57
2023-03-15T05:14:57.934Z,87.51
2023-03-15T05:17:37.567Z,88.45
2023-03-15T05:20:26.170Z,88.92
2023-03-15T05:23:15.095Z,88.55
2023-03-15T05:26:03.776Z,87.56
2023-03-15T05:29:05.898Z,88.21
2023-03-15T05:32:00.541Z,88.31
2023-03-15T05:34:47.598Z,88.28
2023-03-15T05:37:42.465Z,87.41
2023-03-15T05:40:31.274Z,86.96
2023-03-15T05:43:09.126Z,87.09
2023-03-15T05:46:01.427Z,86.87
2023-03-15T05:49:05.654Z,87.32
2023-03-15T05:51:48.484Z,87.40
2023-03-15T05:54:35.949Z,87.75
2023-03-15T05:57:25.288Z,88.35
2023-03-15T06:00:17.991Z,88.69
2023-03-15T06:02:49.673Z,89.30
2023-03-15T06:05:37.146Z,89.64
2023-03-15T06:08:08.486Z,89.50
2023-03-15T06:10:41.584Z,88.44
2023-03-15T06:13:11.997Z,89.29
2023-03-15T06:15:41.169Z,88.12
2023-03-15T06:18:13.942Z,87.11
2023-03-15T06:20:42.455Z,86.84
2023-03-15T06:23:14.698Z,86.65
2023-03-15T06:25:47.172Z,86.40
2023-03-15T06:28:16.347Z,86.72
2023-03-15T06:30:51.052Z,86.57
2023-03-15T06:33:27.034Z,86.05
2023-03-15T06:35:56.452Z,86.17
2023-03-15T06:38:24.981Z,85.86
2023-03-15T06:40:53.893Z,85.95
2023-03-15T06:43:22.563Z,86.00
2023-03-15T06:45:53.677Z,85.84
2023-03-15T06:48:22.931Z,84.78
2023-03-15T06:50:53.706Z,84.45
2023-03-15T06:53:22.429Z,84.23
2023-03-15T06:55:52.410Z,84.12
2023-03-15T06:58:20.631Z,83.07
2023-03-15T07:00:49.793Z,82.76
2023-03-15T07:03:19.349Z,81.57
2023-03-15T07:05:50.002Z,82.65
2023-03-15T07:08:20.497Z,82.06
2023-03-15T07:10:49.725Z,80.18
2023-03-15T07:13:19.260Z,82.13
2023-03-15T07:15:48.199Z,81.34
2023-03-15T07:18:16.414Z,80.41
2023-03-15T07:20:44.768Z,71.45
2023-03-15T07:23:12.940Z,63.55
2023-03-15T07:25:54.390Z,55.58
2023-03-15T07:28:24.523Z,54.35
2023-03-15T07:30:57.463Z,54.34
2023-03-15T07:33:26.808Z,53.63
2023-03-15T07:35:55.876Z,51.09
2023-03-15T07:38:25.384Z,50.41
2023-03-15T07:40:55.141Z,50.30
2023-03-15T07:43:24.197Z,50.65
2023-03-15T07:46:01.654Z,47.12
2023-03-15T07:48:31.092Z,46.70
2023-03-15T07:50:59.574Z,46.42
2023-03-15T07:53:27.851Z,46.25
2023-03-15T07:55:57.997Z,47.46
2023-03-15T07:58:26.336Z,49.36
2023-03-15T08:00:56.694Z,50.06
2023-03-15T08:03:26.990Z,49.11
2023-03-15T08:05:56.521Z,48.82
2023-03-15T08:08:24.622Z,49.35
2023-03-15T08:10:52.767Z,49.32
2023-03-15T08:13:22.401Z,48.06
2023-03-15T08:15:50.846Z,47.80
2023-03-15T08:18:19.124Z,48.97
2023-03-15T08:20:47.478Z,47.92
2023-03-15T08:23:16.864Z,48.65
2023-03-15T08:25:45.513Z,49.59
2023-03-15T08:28:13.717Z,47.75
2023-03-15T08:30:43.150Z,46.90
2023-03-15T08:33:12.719Z,45.30
2023-03-15T08:35:41.907Z,46.25
2023-03-15T08:38:10.598Z,47.57
2023-03-15T08:40:40.798Z,44.19
2023-03-15T08:43:08.824Z,46.00
2023-03-15T08:45:56.748Z,47.95
2023-03-15T08:48:26.706Z,48.56
2023-03-15T08:50:55.229Z,48.35
2023-03-15T08:53:24.070Z,47.95
2023-03-15T08:55:52.096Z,47.59
2023-03-15T08:58:20.354Z,49.80
2023-03-15T09:00:51.542Z,51.38
2023-03-15T09:03:20.355Z,50.98
2023-03-15T09:05:49.937Z,47.96
2023-03-15T09:08:21.254Z,48.48
2023-03-15T09:10:49.494Z,50.43
2023-03-15T09:13:17.871Z,47.70
2023-03-15T09:15:45.942Z,47.58
2023-03-15T09:18:13.992Z,49.07
2023-03-15T09:20:42.336Z,47.67
2023-03-15T09:23:12.279Z,49.69
2023-03-15T09:25:41.048Z,48.36
2023-03-15T09:28:11.521Z,52.01
2023-03-15T09:30:42.019Z,54.04
2023-03-15T09:33:10.494Z,57.24
2023-03-15T09:35:38.518Z,51.02
2023-03-15T09:38:06.801Z,57.72
2023-03-15T09:40:41.779Z,58.16
2023-03-15T09:43:36.848Z,53.56
2023-03-15T09:46:16.960Z,56.70
2023-03-15T09:48:52.833Z,60.68
2023-03-15T09:51:30.342Z,61.80
2023-03-15T09:54:03.177Z,58.86
2023-03-15T09:56:37.518Z,59.01
2023-03-15T09:59:07.533Z,59.43
2023-03-15T10:01:40.102Z,56.96
2023-03-15T10:04:14.535Z,55.87
2023-03-15T10:06:48.673Z,56.10
2023-03-15T10:09:22.038Z,57.29
2023-03-15T10:12:03.049Z,60.39
2023-03-15T10:14:51.744Z,65.66
2023-03-15T10:17:25.570Z,66.10
2023-03-15T10:20:01.494Z,69.57
2023-03-15T10:22:35.711Z,73.18
2023-03-15T10:25:11.428Z,76.23
2023-03-15T10:27:46.895Z,79.46
2023-03-15T10:30:19.250Z,80.98
2023-03-15T10:32:50.885Z,83.99
2023-03-15T10:35:21.665Z,83.73
2023-03-15T10:37:50.206Z,84.87
2023-03-15T10:40:44.466Z,86.34
2023-03-15T10:43:20.274Z,86.18
2023-03-15T10:46:01.478Z,86.01
2023-03-15T10:48:32.680Z,84.31
2023-03-15T10:51:05.267Z,85.12
2023-03-15T10:53:33.888Z,83.02
2023-03-15T10:56:07.370Z,83.85
2023-03-15T10:58:42.347Z,82.86
2023-03-15T11:01:23.030Z,79.73
2023-03-15T11:04:14.498Z,81.90
2023-03-15T11:06:45.934Z,80.47
2023-03-15T11:09:16.371Z,76.11
2023-03-15T11:11:59.361Z,75.67
2023-03-15T11:14:33.562Z,77.95
2023-03-15T11:17:03.347Z,77.10
2023-03-15T11:19:34.371Z,78.62
2023-03-15T11:22:04.027Z,79.42
2023-03-15T11:24:34.579Z,81.56
2023-03-15T11:27:11.388Z,80.39
2023-03-15T11:29:43.472Z,81.55
2023-03-15T11:32:16.314Z,82.38
2023-03-15T11:34:49.780Z,82.26
2023-03-15T11:37:21.964Z,83.98
2023-03-15T11:40:05.117Z,84.74
2023-03-15T11:42:45.898Z,86.77
2023-03-15T11:45:19.446Z,87.33
2023-03-15T11:47:54.450Z,89.26
2023-03-15T11:50:25.376Z,90.77
2023-03-15T11:52:54.325Z,91.74
2023-03-15T11:55:26.315Z,91.73
2023-03-15T11:57:58.088Z,92.35
2023-03-15T12:00:51.819Z,93.00
2023-03-15T12:03:34.554Z,92.22
2023-03-15T12:06:07.987Z,90.56
2023-03-15T12:08:48.579Z,89.98
2023-03-15T12:11:39.014Z,89.11
2023-03-15T12:14:28.256Z,88.04
2023-03-15T12:17:48.476Z,84.82
2023-03-15T12:20:24.933Z,83.88
2023-03-15T12:22:57.466Z,84.92
2023-03-15T12:25:37.282Z,85.05
2023-03-15T12:28:10.730Z,84.91
2023-03-15T12:30:44.060Z,86.61
2023-03-15T12:33:16.905Z,85.54
2023-03-15T12:35:46.370Z,85.21
2023-03-15T12:38:19.057Z,81.92
2023-03-15T12:40:54.669Z,82.51
2023-03-15T12:43:41.245Z,82.59
2023-03-15T12:46:49.014Z,83.97
2023-03-15T12:49:32.666Z,80.68
2023-03-15T12:52:03.209Z,81.58
2023-03-15T12:54:40.369Z,83.08
2023-03-15T12:57:12.047Z,82.35
2023-03-15T12:59:51.217Z,82.23
2023-03-15T13:02:43.396Z,80.83
2023-03-15T13:05:18.917Z,80.69
2023-03-15T13:07:56.845Z,78.81
2023-03-15T13:10:39.343Z,79.02
2023-03-15T13:13:29.891Z,79.41
2023-03-15T13:16:17.889Z,77.63
2023-03-15T13:18:56.481Z,79.39
2023-03-15T13:21:29.561Z,81.13
2023-03-15T13:24:00.394Z,76.49
2023-03-15T13:26:42.555Z,78.33
2023-03-15T13:29:17.689Z,77.12
2023-03-15T13:31:46.810Z,74.38
2023-03-15T13:34:21.914Z,74.92
2023-03-15T13:36:55.931Z,76.44
2023-03-15T13:39:26.411Z,77.18
2023-03-15T13:42:00.264Z,71.34
2023-03-15T13:44:30.404Z,70.25
2023-03-15T13:46:59.110Z,69.88
2023-03-15T13:49:34.737Z,70.41
2023-03-15T13:52:12.275Z,70.94
2023-03-15T13:54:42.258Z,73.29
2023-03-15T13:57:15.072Z,71.83
2023-03-15T13:59:48.612Z,73.37
2023-03-15T14:02:20.834Z,70.77
2023-03-15T14:04:53.795Z,71.23
2023-03-15T14:07:28.856Z,68.83
2023-03-15T14:10:29.062Z,68.32
2023-03-15T14:12:59.020Z,66.68
2023-03-15T14:15:35.979Z,67.65
2023-03-15T14:18:17.134Z,70.63
2023-03-15T14:20:49.010Z,66.67
2023-03-15T14:23:19.412Z,66.37
2023-03-15T14:25:53.184Z,65.58
2023-03-15T14:28:22.085Z,66.72
2023-03-15T14:30:55.367Z,64.01
2023-03-15T14:33:27.884Z,63.10
2023-03-15T14:36:00.539Z,65.45
2023-03-15T14:38:34.624Z,63.07
2023-03-15T14:41:33.180Z,62.80
2023-03-15T14:44:04.364Z,61.95
2023-03-15T14:46:33.217Z,64.60
2023-03-15T14:49:01.743Z,66.20
2023-03-15T14:51:33.091Z,62.64
2023-03-15T14:54:01.769Z,65.11
2023-03-15T14:56:29.850Z,61.02
2023-03-15T14:58:58.153Z,63.58
2023-03-15T15:01:28.677Z,64.22
2023-03-15T15:04:01.743Z,63.62
2023-03-15T15:06:33.024Z,65.42
2023-03-15T15:09:02.964Z,65.87
2023-03-15T15:11:31.253Z,66.31
2023-03-15T15:13:59.909Z,69.41
2023-03-15T15:16:28.663Z,66.15
2023-03-15T15:18:56.794Z,70.38
2023-03-15T15:21:29.382Z,71.37
2023-03-15T15:24:00.218Z,72.73
2023-03-15T15:26:31.667Z,74.21
2023-03-15T15:29:00.851Z,74.08
2023-03-15T15:31:33.795Z,72.07
2023-03-15T15:34:03.180Z,71.48
2023-03-15T15:36:34.354Z,70.95
2023-03-15T15:39:07.077Z,69.51
2023-03-15T15:41:36.600Z,72.06
2023-03-15T15:44:04.969Z,70.26
2023-03-15T15:46:33.642Z,68.50
2023-03-15T15:49:01.770Z,68.76
2023-03-15T15:51:32.595Z,67.69
2023-03-15T15:54:02.647Z,68.17
2023-03-15T15:56:48.431Z,67.17
2023-03-15T15:59:18.644Z,68.58
2023-03-15T16:02:00.129Z,70.99
2023-03-15T16:04:30.330Z,71.49
2023-03-15T16:07:01.628Z,71.06
2023-03-15T16:09:33.407Z,71.29
2023-03-15T16:12:03.224Z,70.75
2023-03-15T16:14:31.330Z,71.49
2023-03-15T16:16:59.581Z,70.96
2023-03-15T16:19:27.917Z,71.90
2023-03-15T16:21:57.179Z,70.90
2023-03-15T16:24:29.143Z,72.93
2023-03-15T16:27:01.320Z,74.72
2023-03-15T16:29:38.107Z,75.13
2023-03-15T16:32:19.115Z,76.63
2023-03-15T16:34:53.310Z,78.47
2023-03-15T16:37:25.335Z,79.14
2023-03-15T16:39:55.783Z,80.13
2023-03-15T16:42:26.017Z,80.93
2023-03-15T16:44:56.316Z,82.39
2023-03-15T16:47:24.828Z,82.88
2023-03-15T16:49:53.174Z,82.90
2023-03-15T16:52:21.137Z,84.24
2023-03-15T16:54:49.702Z,84.97
2023-03-15T16:57:22.170Z,85.56
2023-03-15T16:59:51.432Z,85.66
2023-03-15T17:02:22.900Z,85.80
2023-03-15T17:04:52.862Z,86.05
2023-03-15T17:07:24.003Z,86.53
2023-03-15T17:09:52.513Z,86.58
2023-03-15T17:12:23.576Z,86.15
2023-03-15T17:14:52.805Z,86.52
2023-03-15T17:17:22.533Z,86.81
2023-03-15T17:19:52.711Z,86.93
2023-03-15T17:22:21.550Z,87.26
2023-03-15T17:24:51.110Z,87.63
2023-03-15T17:27:24.190Z,87.88
2023-03-15T17:29:53.000Z,88.21
2023-03-15T17:32:23.220Z,88.36
2023-03-15T17:34:51.693Z,88.72
2023-03-15T17:37:20.456Z,89.08
2023-03-15T17:39:48.786Z,89.32
2023-03-15T17:42:17.270Z,89.55
2023-03-15T17:44:45.357Z,90.38
2023-03-15T17:47:14.129Z,90.70
2023-03-15T17:49:43.620Z,90.93
2023-03-15T17:52:15.220Z,90.99
2023-03-15T17:54:45.487Z,90.78
2023-03-15T17:57:15.935Z,90.79
2023-03-15T17:59:44.666Z,90.79
2023-03-15T18:02:15.851Z,90.58
2023-03-15T18:04:45.451Z,90.78
2023-03-15T18:07:14.322Z,90.84
2023-03-15T18:09:42.674Z,91.15
2023-03-15T18:12:14.381Z,91.29
2023-03-15T18:14:43.877Z,91.43
2023-03-15T18:17:12.156Z,92.15
2023-03-15T18:19:40.669Z,92.12
2023-03-15T18:22:15.418Z,92.14
2023-03-15T18:24:45.458Z,92.40
2023-03-15T18:27:15.955Z,92.50
2023-03-15T18:29:44.132Z,92.69
2023-03-15T18:32:12.530Z,92.82
2023-03-15T18:34:41.460Z,92.94
2023-03-15T18:37:11.792Z,93.11
2023-03-15T18:39:40.081Z,93.27
2023-03-15T18:42:08.592Z,93.43
2023-03-15T18:44:37.933Z,93.85
2023-03-15T18:47:08.452Z,94.19
2023-03-15T18:49:37.438Z,94.89
2023-03-15T18:52:06.552Z,95.23
2023-03-15T18:54:38.329Z,95.28
2023-03-15T18:57:07.155Z,95.16
2023-03-15T18:59:35.448Z,95.00
2023-03-15T19:02:05.013Z,94.94
2023-03-15T19:04:33.412Z,95.27
2023-03-15T19:07:02.493Z,95.60
2023-03-15T19:09:30.591Z,95.48
2023-03-15T19:12:00.206Z,95.62
2023-03-15T19:14:28.538Z,95.58
2023-03-15T19:16:58.146Z,95.53
2023-03-15T19:19:26.608Z,95.71
2023-03-15T19:21:56.628Z,95.65
2023-03-15T19:24:24.705Z,95.34
2023-03-15T19:26:53.005Z,95.40
2023-03-15T19:29:22.869Z,95.33
2023-03-15T19:31:51.074Z,95.36
2023-03-15T19:34:19.410Z,95.13
2023-03-15T19:36:48.466Z,95.21
2023-03-15T19:39:16.447Z,95.11
2023-03-15T19:41:45.238Z,94.72
2023-03-15T19:44:13.565Z,94.72
2023-03-15T19:46:45.743Z,94.82
2023-03-15T19:49:14.358Z,94.22
2023-03-15T19:51:42.764Z,93.59
2023-03-15T19:54:11.662Z,93.35
2023-03-15T19:56:41.640Z,93.29
2023-03-15T19:59:11.133Z,93.35
2023-03-15T20:01:40.132Z,93.37
2023-03-15T20:04:10.340Z,93.50
2023-03-15T20:06:39.115Z,92.73
2023-03-15T20:09:07.144Z,92.27
2023-03-15T20:11:35.702Z,91.80
2023-03-15T20:14:04.798Z,91.50
2023-03-15T20:16:33.388Z,91.54
2023-03-15T20:19:02.969Z,90.88
2023-03-15T20:21:33.869Z,90.29
2023-03-15T20:24:02.616Z,89.80
2023-03-15T20:26:31.877Z,89.68
2023-03-15T20:29:01.411Z,89.70
2023-03-15T20:31:30.397Z,89.33
2023-03-15T20:33:58.583Z,88.64
2023-03-15T20:36:27.180Z,88.77
2023-03-15T20:38:57.657Z,89.17
2023-03-15T20:41:26.904Z,90.24
2023-03-15T20:43:55.425Z,91.10
2023-03-15T20:46:24.027Z,91.87
2023-03-15T20:48:53.227Z,91.56
2023-03-15T20:51:22.497Z,91.92
2023-03-15T20:53:51.109Z,92.00
2023-03-15T20:56:22.273Z,91.49
2023-03-15T20:58:51.360Z,91.57
2023-03-15T21:01:20.195Z,91.20
2023-03-15T21:03:48.867Z,90.99
2023-03-15T21:06:16.887Z,90.85
2023-03-15T21:08:46.070Z,90.63
2023-03-15T21:11:14.238Z,91.04
2023-03-15T21:13:44.059Z,91.08
2023-03-15T21:16:13.262Z,91.17
2023-03-15T21:18:47.754Z,91.54
2023-03-15T21:21:16.750Z,91.49
2023-03-15T21:23:44.880Z,90.99
2023-03-15T21:26:14.763Z,90.44
2023-03-15T21:28:45.834Z,90.74
2023-03-15T21:31:14.628Z,90.75
2023-03-15T21:33:43.172Z,90.49
2023-03-15T21:36:11.289Z,90.32
2023-03-15T21:38:39.523Z,90.49
2023-03-15T21:41:09.323Z,90.29
2023-03-15T21:43:38.121Z,90.22
2023-03-15T21:46:10.130Z,89.65
2023-03-15T21:48:38.366Z,89.62
2023-03-15T21:51:07.514Z,90.12
2023-03-15T21:53:36.827Z,90.21
2023-03-15T21:56:05.693Z,89.66
2023-03-15T21:58:34.216Z,89.63
2023-03-15T22:01:05.218Z,88.88
2023-03-15T22:03:36.221Z,88.64
2023-03-15T22:06:05.077Z,88.39
2023-03-15T22:08:34.259Z,89.03
2023-03-15T22:11:02.531Z,89.10
2023-03-15T22:13:31.131Z,89.39
2023-03-15T22:15:59.787Z,89.48
2023-03-15T22:18:28.965Z,89.41
2023-03-15T22:20:58.810Z,89.67
2023-03-15T22:23:26.961Z,90.19
2023-03-15T22:25:55.622Z,90.54
2023-03-15T22:28:25.535Z,90.61
2023-03-15T22:30:54.624Z,90.33
2023-03-15T22:33:23.497Z,90.05
2023-03-15T22:35:56.881Z,89.80
2023-03-15T22:38:28.996Z,89.43
2023-03-15T22:41:05.383Z,89.49
2023-03-15T22:43:33.784Z,89.57
2023-03-15T22:46:02.727Z,89.27
2023-03-15T22:48:31.460Z,89.32
2023-03-15T22:51:01.122Z,89.45
2023-03-15T22:53:31.556Z,89.80
2023-03-15T22:56:00.160Z,89.85
2023-03-15T22:58:28.647Z,89.83
2023-03-15T23:00:56.828Z,89.77
2023-03-15T23:03:26.353Z,89.97
2023-03-15T23:05:57.501Z,90.47
2023-03-15T23:08:26.092Z,91.07
2023-03-15T23:10:57.899Z,91.14
2023-03-15T23:13:26.165Z,90.71
2023-03-15T23:15:54.392Z,90.31
2023-03-15T23:18:23.085Z,90.67
2023-03-15T23:20:51.432Z,90.82
2023-03-15T23:23:19.526Z,91.35
2023-03-15T23:25:47.675Z,91.69
2023-03-15T23:28:19.378Z,92.39
2023-03-15T23:30:47.580Z,92.89
2023-03-15T23:33:15.694Z,93.23
2023-03-15T23:35:44.401Z,93.69
2023-03-15T23:38:13.639Z,93.69
2023-03-15T23:40:41.954Z,93.83
2023-03-15T23:43:09.920Z,94.17
2023-03-15T23:45:40.347Z,93.80
2023-03-15T23:48:08.605Z,93.87
2023-03-15T23:50:39.184Z,93.10
2023-03-15T23:53:07.258Z,93.52
2023-03-15T23:55:35.657Z,93.84
2023-03-15T23:58:06.784Z,94.71
